Time;durP1;ratioP1;P1;durP2;ratioP2;P2;SDS_P1;SDS_P2;PMS_P1;PMS_P2;Temp;Humidity;BMP_temperature;BMP_pressure;BME280_temperature;BME280_humidity;BME280_pressure;Samples;Min_cycle;Max_cycle;Signal;HPM_P1;HPM_P2
2020/12/26 00:00:34;;;;;;;;;;;0.50;99.90;;;;;;5030986;28;20007;-88
2020/12/26 00:02:59;;;;;;;;;;;0.50;99.90;;;;;;5030845;28;20396;-87
2020/12/26 00:05:27;;;;;;;;;;;0.60;99.90;;;;;;5030383;28;19913;-87
2020/12/26 00:07:53;;;;;;;;;;;0.50;99.90;;;;;;5031893;28;19919;-88
2020/12/26 00:10:21;;;;;;;;;;;0.50;99.90;;;;;;5030955;28;19917;-89
2020/12/26 00:12:47;;;;;;;;;;;0.40;99.90;;;;;;5030332;28;20015;-88
2020/12/26 00:15:13;;;;;;;;;;;0.40;99.90;;;;;;5030083;28;19913;-87
2020/12/26 00:17:41;;;;;;;;;;;0.40;99.90;;;;;;5030002;28;19924;-87
2020/12/26 00:20:06;;;;;;;;;;;0.30;99.90;;;;;;5030626;28;19974;-87
2020/12/26 00:22:35;;;;;;;;;;;0.20;99.90;;;;;;5030325;28;20011;-87
2020/12/26 00:25:01;;;;;;;;;;;0.30;99.90;;;;;;5030040;28;19913;-87
2020/12/26 00:27:29;;;;;;;;;;;0.20;99.90;;;;;;5030440;28;19922;-88
2020/12/26 00:29:57;;;;;;;;;;;0.20;99.90;;;;;;5029846;28;19913;-87
2020/12/26 00:32:23;;;;;;;;;;;0.20;99.90;;;;;;5030046;28;19924;-87
2020/12/26 00:34:49;;;;;;;;;;;0.30;99.90;;;;;;5029831;28;20063;-88
2020/12/26 00:37:22;;;;;;;;;;;0.20;99.90;;;;;;5030031;28;19924;-87
2020/12/26 00:39:48;;;;;;;;;;;0.20;99.90;;;;;;5029945;28;19920;-87
2020/12/26 00:42:13;;;;;;;;;;;0.20;99.90;;;;;;5030260;28;19917;-87
2020/12/26 00:44:39;;;;;;;;;;;0.20;99.90;;;;;;5029571;28;19947;-86
2020/12/26 00:47:04;;;;;;;;;;;0.20;99.90;;;;;;5029944;28;19944;-88
2020/12/26 00:49:30;;;;;;;;;;;0.20;99.90;;;;;;5030238;28;19913;-90
2020/12/26 00:51:55;;;;;;;;;;;0.10;99.90;;;;;;5031057;28;20073;-86
2020/12/26 00:54:21;;;;;;;;;;;0.10;99.90;;;;;;5029649;28;19948;-87
2020/12/26 00:56:46;;;;;;;;;;;0.10;99.90;;;;;;5029717;28;19917;-86
2020/12/26 00:59:14;;;;;;;;;;;0.10;99.90;;;;;;5029556;28;19913;-87
2020/12/26 01:01:40;;;;;;;;;;;0.10;99.90;;;;;;5029882;28;20420;-87
2020/12/26 01:04:05;;;;;;;;;;;0.00;99.90;;;;;;5029513;28;19967;-87
2020/12/26 01:06:31;;;;;;;;;;;0.00;99.90;;;;;;5030048;28;19952;-87
2020/12/26 01:08:56;;;;;;;;;;;0.00;99.90;;;;;;5029768;28;19914;-87
2020/12/26 01:11:22;;;;;;;;;;;0.00;99.90;;;;;;5030780;28;19913;-87
2020/12/26 01:13:52;;;;;;;;;;;0.00;99.90;;;;;;5029138;28;19952;-87
2020/12/26 01:16:20;;;;;;;;;;;0.00;99.90;;;;;;5029477;28;19993;-88
2020/12/26 01:18:48;;;;;;;;;;;-0.10;99.90;;;;;;5029526;28;19936;-87
2020/12/26 01:21:16;;;;;;;;;;;-0.10;99.90;;;;;;5029317;28;20381;-87
2020/12/26 01:23:42;;;;;;;;;;;0.00;99.90;;;;;;5013450;28;19913;-87
2020/12/26 01:26:08;;;;;;;;;;;-0.10;99.90;;;;;;5013200;28;20040;-87
2020/12/26 01:28:33;;;;;;;;;;;-0.10;99.90;;;;;;5013175;28;20353;-87
2020/12/26 01:30:59;;;;;;;;;;;-0.10;99.90;;;;;;5013151;28;19913;-87
2020/12/26 01:33:27;;;;;;;;;;;-0.10;99.90;;;;;;5013050;28;19924;-88
2020/12/26 01:35:52;;;;;;;;;;;-0.10;99.90;;;;;;5017094;28;19917;-87
2020/12/26 01:38:20;;;;;;;;;;;0.00;99.90;;;;;;5033826;28;20435;-87
2020/12/26 01:40:50;;;;;;;;;;;-0.10;99.90;;;;;;5016592;28;19920;-88
2020/12/26 01:43:15;;;;;;;;;;;-0.10;99.90;;;;;;5016290;28;20072;-86
2020/12/26 01:45:41;;;;;;;;;;;-0.10;99.90;;;;;;5016452;28;20039;-88
2020/12/26 01:48:07;;;;;;;;;;;0.00;99.90;;;;;;5016840;28;19919;-87
2020/12/26 01:50:34;;;;;;;;;;;-0.10;99.90;;;;;;5016538;28;19909;-87
2020/12/26 01:53:00;;;;;;;;;;;-0.10;99.90;;;;;;5034121;28;20019;-88
2020/12/26 01:55:28;;;;;;;;;;;-0.10;99.90;;;;;;5015972;28;20225;-88
2020/12/26 01:57:53;;;;;;;;;;;-0.10;99.90;;;;;;5015921;28;19913;-89
2020/12/26 02:00:22;;;;;;;;;;;-0.10;99.90;;;;;;5015995;28;19913;-87
2020/12/26 02:02:50;;;;;;;;;;;-0.10;99.90;;;;;;5016345;28;19920;-87
2020/12/26 02:05:16;;;;;;;;;;;0.00;99.90;;;;;;5015695;28;20281;-88
2020/12/26 02:07:43;;;;;;;;;;;-0.10;99.90;;;;;;5016377;28;19913;-88
2020/12/26 02:10:09;;;;;;;;;;;0.00;99.90;;;;;;5015592;28;19929;-88
2020/12/26 02:12:34;;;;;;;;;;;0.00;99.90;;;;;;5015984;28;20008;-89
2020/12/26 02:15:00;;;;;;;;;;;0.00;99.90;;;;;;5016104;28;19925;-88
2020/12/26 02:17:26;;;;;;;;;;;0.00;99.90;;;;;;5015583;28;19917;-88
2020/12/26 02:19:52;;;;;;;;;;;-0.10;99.90;;;;;;5015862;28;19910;-89
2020/12/26 02:22:20;;;;;;;;;;;-0.10;99.90;;;;;;5023778;28;19932;-88
2020/12/26 02:24:45;;;;;;;;;;;-0.10;99.90;;;;;;5032425;28;20905;-88
2020/12/26 02:27:13;;;;;;;;;;;-0.10;99.90;;;;;;5032066;28;19967;-88
2020/12/26 02:29:39;;;;;;;;;;;-0.10;99.90;;;;;;5032507;28;19964;-88
2020/12/26 02:32:04;;;;;;;;;;;-0.10;99.90;;;;;;5032194;28;19961;-88
2020/12/26 02:34:30;;;;;;;;;;;0.00;99.90;;;;;;5031561;28;19923;-88
2020/12/26 02:36:55;;;;;;;;;;;0.00;99.90;;;;;;5032866;28;19964;-88
2020/12/26 02:39:21;;;;;;;;;;;0.00;99.90;;;;;;5032567;28;19920;-89
2020/12/26 02:41:47;;;;;;;;;;;0.00;99.90;;;;;;5032394;28;19919;-88
2020/12/26 02:44:15;;;;;;;;;;;0.00;99.90;;;;;;5032041;28;19913;-88
2020/12/26 02:46:41;;;;;;;;;;;0.00;99.90;;;;;;5031195;28;19967;-88
2020/12/26 02:49:06;;;;;;;;;;;0.10;99.90;;;;;;5032086;28;19917;-88
2020/12/26 02:51:37;;;;;;;;;;;0.10;99.90;;;;;;5032009;28;20015;-87
2020/12/26 02:54:03;;;;;;;;;;;0.20;99.90;;;;;;5033709;28;19917;-89
2020/12/26 02:56:28;;;;;;;;;;;0.20;99.90;;;;;;5032311;28;20389;-89
2020/12/26 02:58:54;;;;;;;;;;;0.20;99.90;;;;;;5041017;28;19913;-88
2020/12/26 03:01:21;;;;;;;;;;;0.20;99.90;;;;;;5046246;28;19925;-87
2020/12/26 03:03:49;;;;;;;;;;;0.20;99.90;;;;;;5043186;28;20258;-87
2020/12/26 03:06:20;;;;;;;;;;;0.20;99.90;;;;;;5043483;28;20361;-86
2020/12/26 03:08:45;;;;;;;;;;;0.20;99.90;;;;;;5037042;28;19913;-87
2020/12/26 03:11:11;;;;;;;;;;;0.20;99.90;;;;;;5032344;28;20320;-87
2020/12/26 03:13:39;;;;;;;;;;;0.20;99.90;;;;;;5031456;28;19924;-87
2020/12/26 03:16:04;;;;;;;;;;;0.20;99.90;;;;;;5031676;28;19921;-87
2020/12/26 03:18:30;;;;;;;;;;;0.20;99.90;;;;;;5031786;28;19913;-88
2020/12/26 03:20:56;;;;;;;;;;;0.20;99.90;;;;;;5030955;28;20058;-89
2020/12/26 03:23:22;;;;;;;;;;;0.20;99.90;;;;;;5031462;28;19925;-88
2020/12/26 03:25:47;;;;;;;;;;;0.20;99.90;;;;;;5032809;28;19915;-88
2020/12/26 03:28:13;;;;;;;;;;;0.20;99.90;;;;;;5031643;28;20285;-88
2020/12/26 03:30:38;;;;;;;;;;;0.20;99.90;;;;;;5031398;28;20191;-87
2020/12/26 03:33:05;;;;;;;;;;;0.20;99.90;;;;;;5031439;28;19924;-88
2020/12/26 03:35:30;;;;;;;;;;;0.30;99.90;;;;;;5031150;28;19924;-88
2020/12/26 03:37:56;;;;;;;;;;;0.30;99.90;;;;;;5031197;28;20297;-88
2020/12/26 03:40:26;;;;;;;;;;;0.30;99.90;;;;;;5030636;28;19920;-88
2020/12/26 03:42:52;;;;;;;;;;;0.30;99.90;;;;;;5131704;22;20411;-89
2020/12/26 03:45:17;;;;;;;;;;;0.40;99.90;;;;;;4991780;28;19921;-91
2020/12/26 03:47:43;;;;;;;;;;;0.40;99.90;;;;;;4991193;28;19921;-90
2020/12/26 03:50:10;;;;;;;;;;;0.40;99.90;;;;;;4991787;28;20351;-91
2020/12/26 03:52:36;;;;;;;;;;;0.40;99.90;;;;;;4991410;28;19913;-90
2020/12/26 03:55:01;;;;;;;;;;;0.40;99.90;;;;;;4991164;28;19924;-92
2020/12/26 03:57:27;;;;;;;;;;;0.50;99.90;;;;;;4990865;28;20348;-92
2020/12/26 03:59:52;;;;;;;;;;;0.50;99.90;;;;;;4991225;28;19921;-90
2020/12/26 04:02:18;;;;;;;;;;;0.50;99.90;;;;;;4991183;28;20036;-90
2020/12/26 04:04:46;;;;;;;;;;;0.50;99.90;;;;;;4991769;28;19925;-90
2020/12/26 04:07:11;;;;;;;;;;;0.50;99.90;;;;;;4991145;28;19993;-90
2020/12/26 04:09:39;;;;;;;;;;;0.50;99.90;;;;;;5000699;28;19963;-92
2020/12/26 04:12:07;;;;;;;;;;;0.50;99.90;;;;;;5010384;28;19913;-92
2020/12/26 04:14:35;;;;;;;;;;;0.50;99.90;;;;;;5010255;28;19925;-92
2020/12/26 04:17:03;;;;;;;;;;;0.60;99.90;;;;;;5011293;28;19917;-91
2020/12/26 04:19:28;;;;;;;;;;;0.50;99.90;;;;;;5010216;28;20016;-92
2020/12/26 04:21:54;;;;;;;;;;;0.60;99.90;;;;;;5009931;28;20349;-90
2020/12/26 04:24:20;;;;;;;;;;;0.60;99.90;;;;;;5010517;28;19913;-90
2020/12/26 04:26:45;;;;;;;;;;;0.60;99.90;;;;;;5011284;28;19913;-92
2020/12/26 04:29:13;;;;;;;;;;;0.60;99.90;;;;;;5010547;28;19914;-91
2020/12/26 04:31:41;;;;;;;;;;;0.60;99.90;;;;;;5010226;28;19924;-91
2020/12/26 04:34:07;;;;;;;;;;;0.60;99.90;;;;;;5010522;28;20439;-91
2020/12/26 04:36:33;;;;;;;;;;;0.60;99.90;;;;;;5010512;28;20008;-92
2020/12/26 04:38:59;;;;;;;;;;;0.50;99.90;;;;;;5009952;28;20044;-91
2020/12/26 04:41:24;;;;;;;;;;;0.50;99.90;;;;;;5010072;28;19917;-91
2020/12/26 04:43:55;;;;;;;;;;;0.50;99.90;;;;;;5006715;28;19925;-91
2020/12/26 04:46:25;;;;;;;;;;;0.50;99.90;;;;;;5009858;28;20016;-91
2020/12/26 04:49:01;;;;;;;;;;;0.60;99.90;;;;;;5006180;28;19914;-91
2020/12/26 04:51:27;;;;;;;;;;;0.50;99.90;;;;;;4990485;28;20416;-91
2020/12/26 04:53:53;;;;;;;;;;;0.50;99.90;;;;;;5004088;28;20145;-91
2020/12/26 04:56:24;;;;;;;;;;;0.60;99.90;;;;;;4990303;28;19918;-90
2020/12/26 04:58:52;;;;;;;;;;;0.60;99.90;;;;;;4989421;28;19914;-90
2020/12/26 05:01:18;;;;;;;;;;;0.60;99.90;;;;;;4999349;28;19917;-92
2020/12/26 05:03:43;;;;;;;;;;;0.60;99.90;;;;;;4993933;28;20086;-91
2020/12/26 05:06:10;;;;;;;;;;;0.70;99.90;;;;;;4990133;28;19914;-90
2020/12/26 05:08:38;;;;;;;;;;;0.70;99.90;;;;;;4991980;28;20300;-92
2020/12/26 05:11:06;;;;;;;;;;;0.70;99.90;;;;;;4994210;28;20100;-91
2020/12/26 05:13:40;;;;;;;;;;;0.80;99.90;;;;;;4993251;28;19914;-91
2020/12/26 05:16:07;;;;;;;;;;;0.70;99.90;;;;;;4993832;28;19922;-90
2020/12/26 05:18:35;;;;;;;;;;;0.70;99.90;;;;;;4996811;28;19918;-90
2020/12/26 05:21:01;;;;;;;;;;;0.80;99.90;;;;;;5007392;28;19961;-90
2020/12/26 05:23:29;;;;;;;;;;;0.80;99.90;;;;;;4998943;28;19964;-88
2020/12/26 05:25:54;;;;;;;;;;;0.80;99.90;;;;;;4988120;28;19918;-90
2020/12/26 05:28:21;;;;;;;;;;;0.90;99.90;;;;;;5008179;28;19914;-91
2020/12/26 05:30:50;;;;;;;;;;;1.00;99.90;;;;;;5000910;28;19938;-91
2020/12/26 05:33:16;;;;;;;;;;;1.10;99.90;;;;;;4995181;28;19975;-92
2020/12/26 06:34:30;;;;;;;;;;;0.50;99.90;;;;;;4456530;22;20858;-91
2020/12/26 06:39:32;;;;;;;;;;;0.40;99.90;;;;;;5250990;22;19924;-80
2020/12/26 06:42:11;;;;;;;;;;;0.40;99.90;;;;;;5252578;22;19925;-77
2020/12/26 06:44:37;;;;;;;;;;;0.40;99.90;;;;;;5018238;28;19935;-78
2020/12/26 06:47:03;;;;;;;;;;;0.30;99.90;;;;;;5030664;28;19960;-80
2020/12/26 06:49:31;;;;;;;;;;;0.30;99.90;;;;;;5145737;23;19972;-82
2020/12/26 06:52:00;;;;;;;;;;;0.30;99.90;;;;;;5025422;28;19928;-82
2020/12/26 06:57:38;;;;;;;;;;;0.40;99.90;;;;;;5173468;22;19929;-80
2020/12/26 07:00:23;;;;;;;;;;;0.40;99.90;;;;;;5029681;28;19912;-81
2020/12/26 07:03:10;;;;;;;;;;;0.40;99.90;;;;;;5029749;28;19920;-78
2020/12/26 07:05:38;;;;;;;;;;;0.40;99.90;;;;;;5029316;28;20039;-80
2020/12/26 07:08:06;;;;;;;;;;;0.50;99.90;;;;;;5029729;28;19935;-78
2020/12/26 07:10:35;;;;;;;;;;;0.40;99.90;;;;;;5029494;28;20376;-79
2020/12/26 07:13:00;;;;;;;;;;;0.40;99.90;;;;;;5029365;28;19913;-80
2020/12/26 07:15:35;;;;;;;;;;;0.50;99.90;;;;;;5028675;28;20328;-79
2020/12/26 07:18:19;;;;;;;;;;;0.50;99.90;;;;;;5029206;28;19909;-79
2020/12/26 07:20:48;;;;;;;;;;;0.50;99.90;;;;;;5029215;28;20364;-82
2020/12/26 07:23:15;;;;;;;;;;;0.50;99.90;;;;;;5029263;28;19920;-80
2020/12/26 07:25:40;;;;;;;;;;;0.50;99.90;;;;;;5029073;28;20004;-80
2020/12/26 07:28:06;;;;;;;;;;;0.50;99.90;;;;;;5026884;28;20012;-79
2020/12/26 07:30:36;;;;;;;;;;;0.50;99.90;;;;;;5025097;28;20280;-80
2020/12/26 07:33:02;;;;;;;;;;;0.50;99.90;;;;;;5028565;28;19928;-81
2020/12/26 07:35:29;;;;;;;;;;;0.60;99.90;;;;;;5024639;28;19925;-79
2020/12/26 07:38:02;;;;;;;;;;;0.60;99.90;;;;;;5027502;28;19992;-81
2020/12/26 07:40:32;;;;;;;;;;;0.70;99.90;;;;;;5026863;28;20036;-80
2020/12/26 07:42:59;;;;;;;;;;;0.70;99.90;;;;;;5026305;28;20590;-80
2020/12/26 07:45:27;;;;;;;;;;;0.70;99.90;;;;;;5027982;28;19913;-81
2020/12/26 07:50:38;;;;;;;;;;;0.80;99.90;;;;;;5070693;23;19929;-84
2020/12/26 07:53:05;;;;;;;;;;;0.80;99.90;;;;;;5024489;28;19913;-84
2020/12/26 07:55:31;;;;;;;;;;;0.90;99.90;;;;;;5001789;28;20008;-85
2020/12/26 07:58:03;;;;;;;;;;;0.90;99.90;;;;;;5011253;28;20059;-84
2020/12/26 08:00:30;;;;;;;;;;;0.90;99.90;;;;;;5010317;28;19917;-84
2020/12/26 08:02:59;;;;;;;;;;;0.90;99.90;;;;;;5011227;28;19961;-84
2020/12/26 08:05:30;;;;;;;;;;;0.90;99.90;;;;;;5013559;28;19913;-84
2020/12/26 08:07:58;;;;;;;;;;;0.90;99.90;;;;;;5009918;28;19921;-84
2020/12/26 08:10:24;;;;;;;;;;;1.00;99.90;;;;;;5011393;28;19917;-84
2020/12/26 08:12:54;;;;;;;;;;;1.00;99.90;;;;;;5010981;28;19920;-84
2020/12/26 08:15:24;;;;;;;;;;;1.00;99.90;;;;;;5010402;28;19922;-85
2020/12/26 08:17:56;;;;;;;;;;;1.00;99.90;;;;;;5010513;28;20523;-85
2020/12/26 08:20:22;;;;;;;;;;;1.00;99.90;;;;;;5011461;28;20011;-84
2020/12/26 08:22:48;;;;;;;;;;;1.00;99.90;;;;;;4998271;28;20460;-85
2020/12/26 08:25:14;;;;;;;;;;;1.00;99.90;;;;;;5010241;28;19960;-84
2020/12/26 08:27:40;;;;;;;;;;;1.00;99.90;;;;;;5011465;28;19917;-85
2020/12/26 08:30:07;;;;;;;;;;;1.10;99.90;;;;;;5006009;28;19917;-84
2020/12/26 08:32:36;;;;;;;;;;;1.10;99.90;;;;;;5014964;28;20399;-85
2020/12/26 08:35:02;;;;;;;;;;;1.10;99.90;;;;;;5007232;28;20292;-84
2020/12/26 08:37:30;;;;;;;;;;;1.10;99.90;;;;;;5005432;28;19914;-84
2020/12/26 08:39:57;;;;;;;;;;;1.10;99.90;;;;;;5023745;28;19914;-85
2020/12/26 08:42:24;;;;;;;;;;;1.10;99.90;;;;;;5018445;28;19916;-84
2020/12/26 08:44:49;;;;;;;;;;;1.10;99.90;;;;;;5023347;28;20006;-84
2020/12/26 08:47:24;;;;;;;;;;;1.20;99.90;;;;;;5019932;28;19948;-85
2020/12/26 08:49:50;;;;;;;;;;;1.20;99.90;;;;;;5015757;28;19925;-84
2020/12/26 08:52:24;;;;;;;;;;;1.30;99.90;;;;;;5012205;28;20336;-84
2020/12/26 08:55:08;;;;;;;;;;;1.40;99.90;;;;;;5015768;28;19921;-85
2020/12/26 08:57:34;;;;;;;;;;;1.40;99.90;;;;;;5020472;28;19960;-85
2020/12/26 09:00:15;;;;;;;;;;;1.50;99.90;;;;;;5011184;28;19952;-85
2020/12/26 09:02:46;;;;;;;;;;;1.60;99.90;;;;;;5009474;28;20024;-85
2020/12/26 09:05:31;;;;;;;;;;;1.50;99.90;;;;;;5009448;28;19913;-86
2020/12/26 09:08:14;;;;;;;;;;;1.60;99.90;;;;;;5009924;28;19915;-86
2020/12/26 09:10:42;;;;;;;;;;;1.60;99.90;;;;;;5010946;28;19914;-85
2020/12/26 09:13:14;;;;;;;;;;;1.70;99.90;;;;;;5009507;28;19920;-85
2020/12/26 09:16:02;;;;;;;;;;;1.70;99.90;;;;;;5009050;28;20359;-86
2020/12/26 09:18:29;;;;;;;;;;;1.60;99.90;;;;;;5009496;28;19960;-86
2020/12/26 09:20:58;;;;;;;;;;;1.70;99.90;;;;;;5023085;28;20384;-86
2020/12/26 09:23:29;;;;;;;;;;;1.70;99.90;;;;;;5010103;28;19913;-85
2020/12/26 09:26:07;;;;;;;;;;;1.70;99.90;;;;;;5009213;28;19917;-86
2020/12/26 09:28:40;;;;;;;;;;;1.70;99.90;;;;;;5008702;28;19917;-85
2020/12/26 09:31:09;;;;;;;;;;;1.80;99.90;;;;;;5015000;28;19944;-86
2020/12/26 09:33:35;;;;;;;;;;;1.80;99.90;;;;;;5022684;28;19920;-86
2020/12/26 09:36:04;;;;;;;;;;;1.80;99.90;;;;;;5012718;28;19913;-86
2020/12/26 09:38:30;;;;;;;;;;;1.80;99.90;;;;;;5014386;28;20315;-85
2020/12/26 09:40:58;;;;;;;;;;;1.90;99.90;;;;;;5009207;28;19964;-86
2020/12/26 09:43:26;;;;;;;;;;;1.90;99.90;;;;;;5017155;28;19913;-85
2020/12/26 09:45:54;;;;;;;;;;;1.90;99.90;;;;;;5011127;28;19913;-85
2020/12/26 09:48:19;;;;;;;;;;;2.00;99.90;;;;;;5017570;28;19918;-85
2020/12/26 09:50:45;;;;;;;;;;;2.00;99.90;;;;;;5019385;28;19920;-86
2020/12/26 09:53:10;;;;;;;;;;;2.10;99.90;;;;;;5023361;28;20004;-85
2020/12/26 09:55:36;;;;;;;;;;;2.10;99.90;;;;;;5010717;28;19957;-86
2020/12/26 09:58:01;;;;;;;;;;;2.10;99.90;;;;;;5012901;28;20008;-86
2020/12/26 10:00:30;;;;;;;;;;;2.10;99.90;;;;;;5012275;28;19941;-85
2020/12/26 10:02:55;;;;;;;;;;;2.10;99.90;;;;;;5013403;28;20427;-85
2020/12/26 10:05:21;;;;;;;;;;;2.10;99.90;;;;;;5012406;28;19920;-85
2020/12/26 10:07:47;;;;;;;;;;;2.10;99.90;;;;;;5012505;28;19909;-85
2020/12/26 10:10:14;;;;;;;;;;;2.10;99.90;;;;;;5012319;28;20004;-85
2020/12/26 10:12:40;;;;;;;;;;;2.20;99.90;;;;;;5012869;28;19971;-85
2020/12/26 10:15:08;;;;;;;;;;;2.20;99.90;;;;;;5011744;28;20459;-85
2020/12/26 10:17:36;;;;;;;;;;;2.30;99.90;;;;;;5012267;28;20353;-85
2020/12/26 10:20:02;;;;;;;;;;;2.30;99.90;;;;;;5012419;28;19914;-85
2020/12/26 10:22:27;;;;;;;;;;;2.40;99.90;;;;;;5012330;28;19921;-85
2020/12/26 10:24:55;;;;;;;;;;;2.40;99.90;;;;;;5012033;28;19913;-85
2020/12/26 10:27:21;;;;;;;;;;;2.40;99.90;;;;;;5011734;28;20012;-85
2020/12/26 10:29:48;;;;;;;;;;;2.50;99.90;;;;;;5011775;28;20345;-85
2020/12/26 10:32:16;;;;;;;;;;;2.50;99.90;;;;;;5013227;28;19909;-86
2020/12/26 10:34:44;;;;;;;;;;;2.50;99.90;;;;;;5011758;28;20320;-86
2020/12/26 10:37:12;;;;;;;;;;;2.50;99.90;;;;;;5025105;28;19913;-85
2020/12/26 10:39:37;;;;;;;;;;;2.60;99.90;;;;;;5026113;28;20466;-86
2020/12/26 10:42:03;;;;;;;;;;;2.60;99.90;;;;;;5011584;28;20012;-85
2020/12/26 10:44:28;;;;;;;;;;;2.60;99.90;;;;;;5011236;28;19913;-86
2020/12/26 10:46:56;;;;;;;;;;;2.60;99.90;;;;;;5012136;28;20361;-86
2020/12/26 10:52:07;;;;;;;;;;;2.70;99.90;;;;;;4982388;28;20288;-86
2020/12/26 10:54:35;;;;;;;;;;;2.80;99.90;;;;;;4963577;28;19926;-86
2020/12/26 10:57:00;;;;;;;;;;;2.80;99.90;;;;;;4956590;28;19914;-86
2020/12/26 10:59:26;;;;;;;;;;;2.80;99.90;;;;;;4956374;28;20070;-86
2020/12/26 11:01:54;;;;;;;;;;;2.90;99.90;;;;;;4958703;28;19925;-86
2020/12/26 11:04:19;;;;;;;;;;;2.90;99.90;;;;;;4966721;28;19914;-85
2020/12/26 11:06:49;;;;;;;;;;;3.00;99.90;;;;;;4972702;28;20381;-86
2020/12/26 11:09:15;;;;;;;;;;;3.00;99.90;;;;;;4962820;28;19914;-86
2020/12/26 11:11:44;;;;;;;;;;;3.00;99.90;;;;;;4992662;28;19920;-86
2020/12/26 11:14:10;;;;;;;;;;;3.00;99.90;;;;;;4977711;28;20422;-86
2020/12/26 11:16:35;;;;;;;;;;;3.00;99.90;;;;;;4964318;28;19914;-86
2020/12/26 11:19:02;;;;;;;;;;;3.10;99.90;;;;;;4955806;28;19914;-86
2020/12/26 11:21:30;;;;;;;;;;;3.10;99.90;;;;;;4966064;28;19917;-86
2020/12/26 11:23:58;;;;;;;;;;;3.10;99.90;;;;;;4959143;28;19967;-87
2020/12/26 11:26:26;;;;;;;;;;;3.20;99.90;;;;;;4955748;28;19914;-86
2020/12/26 11:28:54;;;;;;;;;;;3.20;99.90;;;;;;4973170;28;19918;-86
2020/12/26 11:31:20;;;;;;;;;;;3.20;99.90;;;;;;4962612;28;20361;-86
2020/12/26 11:33:48;;;;;;;;;;;3.20;99.90;;;;;;4978159;28;19964;-86
2020/12/26 11:36:20;;;;;;;;;;;3.20;99.90;;;;;;4955230;28;19960;-86
2020/12/26 11:38:51;;;;;;;;;;;3.20;99.90;;;;;;4967517;28;20005;-86
2020/12/26 11:41:20;;;;;;;;;;;3.20;99.90;;;;;;4974218;28;20041;-85
2020/12/26 11:43:48;;;;;;;;;;;3.30;99.90;;;;;;4955501;28;19977;-86
2020/12/26 11:46:14;;;;;;;;;;;3.20;99.90;;;;;;4969236;28;19914;-87
2020/12/26 11:48:40;;;;;;;;;;;3.20;99.90;;;;;;4955023;28;20384;-86
2020/12/26 11:51:09;;;;;;;;;;;3.20;99.90;;;;;;4963093;28;20223;-86
2020/12/26 11:53:39;;;;;;;;;;;3.20;99.90;;;;;;4984771;28;20043;-86
2020/12/26 11:56:12;;;;;;;;;;;3.20;99.90;;;;;;4971717;28;19914;-86
2020/12/26 11:58:38;;;;;;;;;;;3.30;99.90;;;;;;4971054;28;19914;-86
2020/12/26 12:01:04;;;;;;;;;;;3.30;99.90;;;;;;4972110;28;19936;-86
2020/12/26 12:03:30;;;;;;;;;;;3.40;99.90;;;;;;4970869;28;20455;-86
2020/12/26 12:05:56;;;;;;;;;;;3.40;99.90;;;;;;4971456;28;19914;-85
2020/12/26 12:08:24;;;;;;;;;;;3.40;99.90;;;;;;4971228;28;20000;-86
2020/12/26 12:10:52;;;;;;;;;;;3.50;99.90;;;;;;4958528;28;20206;-86
2020/12/26 12:13:17;;;;;;;;;;;3.50;99.90;;;;;;4971470;28;19935;-86
2020/12/26 12:15:43;;;;;;;;;;;3.50;99.90;;;;;;4984727;28;20042;-86
2020/12/26 12:18:08;;;;;;;;;;;3.50;99.90;;;;;;4972808;28;20012;-86
2020/12/26 12:20:34;;;;;;;;;;;3.50;99.90;;;;;;4971171;28;19921;-86
2020/12/26 12:23:02;;;;;;;;;;;3.50;99.90;;;;;;4971890;28;19921;-86
2020/12/26 12:25:31;;;;;;;;;;;3.50;99.90;;;;;;4970768;28;20008;-86
2020/12/26 12:27:59;;;;;;;;;;;3.50;99.90;;;;;;4971642;28;19914;-85
2020/12/26 12:30:25;;;;;;;;;;;3.50;99.90;;;;;;4972097;28;19949;-86
2020/12/26 12:32:51;;;;;;;;;;;3.50;99.90;;;;;;4973376;28;19914;-86
2020/12/26 12:35:19;;;;;;;;;;;3.60;99.90;;;;;;4973032;28;19922;-86
2020/12/26 12:37:48;;;;;;;;;;;3.50;99.90;;;;;;4987083;28;19936;-85
2020/12/26 12:40:19;;;;;;;;;;;3.60;99.90;;;;;;4972396;28;20008;-86
2020/12/26 12:42:45;;;;;;;;;;;3.70;99.90;;;;;;4971438;28;19910;-86
2020/12/26 12:45:11;;;;;;;;;;;3.70;99.90;;;;;;4971644;28;19921;-87
2020/12/26 12:47:37;;;;;;;;;;;3.70;99.90;;;;;;4971174;28;19969;-85
2020/12/26 12:50:03;;;;;;;;;;;3.70;99.90;;;;;;4954595;28;19945;-86
2020/12/26 12:52:29;;;;;;;;;;;3.70;99.90;;;;;;4963837;28;20026;-86
2020/12/26 12:54:57;;;;;;;;;;;3.70;99.90;;;;;;4958783;28;20046;-86
2020/12/26 12:57:22;;;;;;;;;;;3.60;99.90;;;;;;4954877;28;19926;-86
2020/12/26 12:59:48;;;;;;;;;;;3.60;99.90;;;;;;4954689;28;19914;-86
2020/12/26 13:02:13;;;;;;;;;;;3.50;99.90;;;;;;4959959;28;20277;-86
2020/12/26 13:04:39;;;;;;;;;;;3.60;99.90;;;;;;4962729;28;19922;-87
2020/12/26 13:07:07;;;;;;;;;;;3.60;99.90;;;;;;4968236;28;20004;-86
2020/12/26 13:09:37;;;;;;;;;;;3.50;99.90;;;;;;4963544;28;20381;-86
2020/12/26 13:12:03;;;;;;;;;;;3.50;99.90;;;;;;4975152;28;20005;-87
2020/12/26 13:14:31;;;;;;;;;;;3.40;99.90;;;;;;4954249;28;20025;-87
2020/12/26 13:16:57;;;;;;;;;;;3.40;99.90;;;;;;4954673;28;19918;-86
2020/12/26 13:19:23;;;;;;;;;;;3.40;99.90;;;;;;4960724;28;19914;-87
2020/12/26 13:21:54;;;;;;;;;;;3.40;99.90;;;;;;4977817;28;19960;-86
2020/12/26 13:24:20;;;;;;;;;;;3.40;99.90;;;;;;4976683;28;19917;-86
2020/12/26 13:26:48;;;;;;;;;;;3.40;99.90;;;;;;4962371;28;19921;-86
2020/12/26 13:29:16;;;;;;;;;;;3.40;99.90;;;;;;4967494;28;20028;-87
2020/12/26 13:31:44;;;;;;;;;;;3.40;99.90;;;;;;4957662;28;19918;-87
2020/12/26 13:34:10;;;;;;;;;;;3.50;99.90;;;;;;4957309;28;20432;-86
2020/12/26 13:36:38;;;;;;;;;;;3.40;99.90;;;;;;4958227;28;19918;-87
2020/12/26 13:39:05;;;;;;;;;;;3.40;99.90;;;;;;4958595;28;19914;-86
2020/12/26 13:41:33;;;;;;;;;;;3.40;99.90;;;;;;4986643;28;20401;-86
2020/12/26 13:43:58;;;;;;;;;;;3.40;99.90;;;;;;4957551;28;19914;-86
2020/12/26 13:46:24;;;;;;;;;;;3.40;99.90;;;;;;4958143;28;19926;-86
2020/12/26 13:48:49;;;;;;;;;;;3.30;99.90;;;;;;4957709;28;19921;-86
2020/12/26 13:51:15;;;;;;;;;;;3.30;99.90;;;;;;4988777;28;20028;-87
2020/12/26 13:53:43;;;;;;;;;;;3.30;99.90;;;;;;4957184;28;20428;-86
2020/12/26 13:56:08;;;;;;;;;;;3.30;99.90;;;;;;4957436;28;19914;-86
2020/12/26 13:58:34;;;;;;;;;;;3.30;99.90;;;;;;4956826;28;20270;-87
2020/12/26 14:00:59;;;;;;;;;;;3.30;99.90;;;;;;4957904;28;20398;-87
2020/12/26 14:03:25;;;;;;;;;;;3.30;99.90;;;;;;4974251;28;19918;-86
2020/12/26 14:05:53;;;;;;;;;;;3.30;99.90;;;;;;4964303;28;19921;-86
2020/12/26 14:08:21;;;;;;;;;;;3.30;99.90;;;;;;4963094;28;19918;-87
2020/12/26 14:10:49;;;;;;;;;;;3.30;99.90;;;;;;4970712;28;20004;-86
2020/12/26 14:13:15;;;;;;;;;;;3.20;99.90;;;;;;4957878;28;20362;-87
2020/12/26 14:15:40;;;;;;;;;;;3.20;99.90;;;;;;4988845;28;19968;-86
2020/12/26 14:18:08;;;;;;;;;;;3.20;99.90;;;;;;4957997;28;19914;-86
2020/12/26 14:20:34;;;;;;;;;;;3.20;99.90;;;;;;4956554;28;20293;-86
2020/12/26 14:22:59;;;;;;;;;;;3.20;99.90;;;;;;4982887;28;19914;-87
2020/12/26 14:25:25;;;;;;;;;;;3.20;99.90;;;;;;4962063;28;20392;-87
2020/12/26 14:27:50;;;;;;;;;;;3.20;99.90;;;;;;4957022;28;20362;-86
2020/12/26 14:30:16;;;;;;;;;;;3.10;99.90;;;;;;4968739;28;19909;-87
2020/12/26 14:32:44;;;;;;;;;;;3.10;99.90;;;;;;4963178;28;20012;-86
2020/12/26 14:35:09;;;;;;;;;;;3.10;99.90;;;;;;4965467;28;19968;-87
2020/12/26 14:37:40;;;;;;;;;;;3.00;99.90;;;;;;4957384;28;20325;-86
2020/12/26 14:40:12;;;;;;;;;;;3.00;99.90;;;;;;4956523;28;19910;-86
2020/12/26 14:42:38;;;;;;;;;;;2.90;99.90;;;;;;4974347;28;19918;-86
2020/12/26 14:45:06;;;;;;;;;;;2.90;99.90;;;;;;4956414;28;20001;-87
2020/12/26 14:47:34;;;;;;;;;;;2.80;99.90;;;;;;4957008;28;20005;-86
2020/12/26 14:49:59;;;;;;;;;;;2.80;99.90;;;;;;4956327;28;19968;-86
2020/12/26 14:52:25;;;;;;;;;;;2.80;99.90;;;;;;4973499;28;19918;-86
2020/12/26 14:54:50;;;;;;;;;;;2.80;99.90;;;;;;4956483;28;19962;-86
2020/12/26 14:57:16;;;;;;;;;;;2.70;99.90;;;;;;4973836;28;20358;-86
2020/12/26 14:59:41;;;;;;;;;;;2.60;99.90;;;;;;4955865;28;20018;-86
2020/12/26 15:02:07;;;;;;;;;;;2.60;99.90;;;;;;4956453;28;20365;-87
2020/12/26 15:04:32;;;;;;;;;;;2.60;99.90;;;;;;4952807;29;19914;-85
2020/12/26 15:07:00;;;;;;;;;;;2.60;99.90;;;;;;4970467;28;19910;-86
2020/12/26 15:09:30;;;;;;;;;;;2.50;99.90;;;;;;4956042;28;19914;-86
2020/12/26 15:11:58;;;;;;;;;;;2.50;99.90;;;;;;4955927;28;19949;-86
2020/12/26 15:14:26;;;;;;;;;;;2.40;99.90;;;;;;4956099;28;19922;-86
2020/12/26 15:16:51;;;;;;;;;;;2.40;99.90;;;;;;4956108;28;19921;-86
2020/12/26 15:19:17;;;;;;;;;;;2.40;99.90;;;;;;4973051;28;20372;-86
2020/12/26 15:21:45;;;;;;;;;;;2.30;99.90;;;;;;4956311;28;19920;-85
2020/12/26 15:24:13;;;;;;;;;;;2.30;99.90;;;;;;4972270;28;19914;-86
2020/12/26 15:26:41;;;;;;;;;;;2.30;99.90;;;;;;4956161;28;19914;-86
2020/12/26 15:29:10;;;;;;;;;;;2.30;99.90;;;;;;4955635;28;19921;-85
2020/12/26 15:31:38;;;;;;;;;;;2.30;99.90;;;;;;4955602;28;20001;-86
2020/12/26 15:34:06;;;;;;;;;;;2.20;99.90;;;;;;4955503;28;19929;-86
2020/12/26 15:36:31;;;;;;;;;;;2.20;99.90;;;;;;4956284;28;20329;-86
2020/12/26 15:38:59;;;;;;;;;;;2.10;99.90;;;;;;4972104;28;19967;-85